Time,TemperatureF,DewpointF,PressureIn,WindDirection,WindDirectionDegrees,WindSpeedMPH,WindSpeedGustMPH,Humidity,HourlyPrecipIn,Conditions,Clouds,dailyrainin,SolarRadiationWatts/m^2,SoftwareType,DateUTC
2014-01-11 00:22:00,33.0,23.0,-100.00,SW,235,5.0,18.0,67,0.00,,,0.00,0.000000,,2014-01-11 05:22:00,
2014-01-11 00:33:00,33.0,23.0,-100.00,SW,235,5.0,18.0,67,0.00,,,0.00,0.000000,,2014-01-11 05:33:00,
2014-01-11 00:43:00,33.0,23.0,-100.00,SW,235,5.0,18.0,67,0.00,,,0.00,0.000000,,2014-01-11 05:43:00,
2014-01-11 00:53:00,33.0,23.0,-100.00,SW,235,5.0,18.0,67,0.00,,,0.00,0.000000,,2014-01-11 05:53:00,
2014-01-11 01:22:00,33.0,24.0,-100.00,WNW,286,3.0,12.0,69,0.00,,,0.00,0.000000,,2014-01-11 06:22:00,
2014-01-11 01:32:00,33.0,24.0,-100.00,WNW,286,3.0,12.0,69,0.00,,,0.00,0.000000,,2014-01-11 06:32:00,
2014-01-11 01:42:00,33.0,24.0,-100.00,WNW,286,3.0,12.0,69,0.00,,,0.00,0.000000,,2014-01-11 06:42:00,
2014-01-11 01:52:00,33.0,24.0,-100.00,WNW,286,3.0,12.0,69,0.00,,,0.00,0.000000,,2014-01-11 06:52:00,
2014-01-11 02:22:00,33.0,25.0,-100.00,ESE,122,2.0,17.0,71,0.00,,,0.00,0.000000,,2014-01-11 07:22:00,
2014-01-11 02:32:00,33.0,25.0,-100.00,ESE,122,2.0,17.0,71,0.00,,,0.00,0.000000,,2014-01-11 07:32:00,
2014-01-11 02:42:00,33.0,25.0,-100.00,ESE,122,2.0,17.0,71,0.00,,,0.00,0.000000,,2014-01-11 07:42:00,
2014-01-11 02:52:00,33.0,25.0,-100.00,ESE,122,2.0,17.0,71,0.00,,,0.00,0.000000,,2014-01-11 07:52:00,
2014-01-11 03:21:00,35.0,25.0,-100.00,WNW,291,5.0,13.0,66,0.00,,,0.00,0.000000,,2014-01-11 08:21:00,
2014-01-11 03:32:00,35.0,25.0,-100.00,WNW,291,5.0,13.0,66,0.00,,,0.00,0.000000,,2014-01-11 08:32:00,
2014-01-11 03:42:00,35.0,25.0,-100.00,WNW,291,5.0,13.0,66,0.00,,,0.00,0.000000,,2014-01-11 08:42:00,
2014-01-11 03:52:00,35.0,25.0,-100.00,WNW,291,5.0,13.0,66,0.00,,,0.00,0.000000,,2014-01-11 08:52:00,
2014-01-11 04:21:00,35.0,24.0,-100.00,ENE,67,6.0,14.0,65,0.00,,,0.00,0.000000,,2014-01-11 09:21:00,
2014-01-11 04:33:00,35.0,24.0,-100.00,ENE,67,6.0,14.0,65,0.00,,,0.00,0.000000,,2014-01-11 09:33:00,
2014-01-11 04:43:00,35.0,24.0,-100.00,ENE,67,6.0,14.0,65,0.00,,,0.00,0.000000,,2014-01-11 09:43:00,
2014-01-11 04:53:00,35.0,24.0,-100.00,ENE,67,6.0,14.0,65,0.00,,,0.00,0.000000,,2014-01-11 09:53:00,
2014-01-11 05:53:00,38.0,28.0,-100.00,SSE,151,2.0,18.0,67,0.00,,,0.00,0.000000,,2014-01-11 10:53:00,
2014-01-11 06:52:00,39.0,29.0,-100.00,West,276,7.0,13.0,68,-99.99,,,0.00,0.000000,,2014-01-11 11:52:00,
2014-01-11 07:21:00,37.0,30.0,-100.00,SW,230,7.0,18.0,76,-99.99,,,-99.99,0.000000,,2014-01-11 12:21:00,
2014-01-11 07:32:00,37.0,30.0,-100.00,SW,230,7.0,18.0,76,-99.99,,,-99.99,0.000000,,2014-01-11 12:32:00,
2014-01-11 07:42:00,37.0,30.0,-100.00,SW,230,7.0,18.0,76,-99.99,,,-99.99,0.000000,,2014-01-11 12:42:00,
2014-01-11 07:53:00,37.0,30.0,-100.00,SW,230,7.0,18.0,76,-99.99,,,-99.99,0.000000,,2014-01-11 12:53:00,
2014-01-11 09:21:00,38.0,31.0,-100.00,South,186,6.0,17.0,77,-99.99,,,-99.99,0.000000,,2014-01-11 14:21:00,
2014-01-11 09:32:00,38.0,31.0,-100.00,South,186,6.0,17.0,77,-99.99,,,-99.99,0.000000,,2014-01-11 14:32:00,
2014-01-11 09:42:00,38.0,31.0,-100.00,South,186,6.0,17.0,77,-99.99,,,-99.99,0.000000,,2014-01-11 14:42:00,
2014-01-11 09:52:00,38.0,31.0,-100.00,South,186,6.0,17.0,77,-99.99,,,-99.99,0.000000,,2014-01-11 14:52:00,
2014-01-11 10:43:00,39.0,34.0,-100.00,West,266,5.0,17.0,81,0.00,,,0.00,0.000000,,2014-01-11 15:43:00,
2014-01-11 10:54:00,39.0,34.0,-100.00,West,266,5.0,17.0,81,0.00,,,0.00,0.000000,,2014-01-11 15:54:00,
2014-01-11 11:23:00,39.0,32.0,-100.00,South,189,7.0,24.0,76,0.00,,,0.00,3.000000,,2014-01-11 16:23:00,
2014-01-11 11:33:00,39.0,32.0,-100.00,South,189,7.0,24.0,76,0.00,,,0.00,3.000000,,2014-01-11 16:33:00,
2014-01-11 11:42:00,39.0,32.0,-100.00,South,189,7.0,24.0,76,0.00,,,0.00,3.000000,,2014-01-11 16:42:00,
2014-01-11 11:53:00,39.0,32.0,-100.00,South,189,7.0,24.0,76,0.00,,,0.00,3.000000,,2014-01-11 16:53:00,
2014-01-11 12:22:00,40.0,34.0,-100.00,NNW,327,8.0,20.0,80,0.00,,,0.00,26.000000,,2014-01-11 17:22:00,
2014-01-11 12:33:00,40.0,34.0,-100.00,NNW,327,8.0,20.0,80,0.00,,,0.00,26.000000,,2014-01-11 17:33:00,
2014-01-11 12:42:00,40.0,34.0,-100.00,NNW,327,8.0,20.0,80,0.00,,,0.00,26.000000,,2014-01-11 17:42:00,
2014-01-11 12:52:00,40.0,34.0,-100.00,NNW,327,8.0,20.0,80,0.00,,,0.00,26.000000,,2014-01-11 17:52:00,
2014-01-11 13:22:00,37.0,33.0,-100.00,West,269,7.0,24.0,86,0.00,,,0.00,46.000000,,2014-01-11 18:22:00,
2014-01-11 13:32:00,37.0,33.0,-100.00,West,269,7.0,24.0,86,0.00,,,0.00,46.000000,,2014-01-11 18:32:00,
2014-01-11 13:42:00,37.0,33.0,-100.00,West,269,7.0,24.0,86,0.00,,,0.00,46.000000,,2014-01-11 18:42:00,
2014-01-11 13:52:00,37.0,33.0,-100.00,West,269,7.0,24.0,86,0.00,,,0.00,46.000000,,2014-01-11 18:52:00,
2014-01-11 14:23:00,39.0,35.0,-100.00,SW,221,5.0,24.0,87,0.00,,,0.00,58.000000,,2014-01-11 19:23:00,
2014-01-11 14:32:00,39.0,35.0,-100.00,SW,221,5.0,24.0,87,0.00,,,0.00,58.000000,,2014-01-11 19:32:00,
2014-01-11 14:42:00,39.0,35.0,-100.00,SW,221,5.0,24.0,87,0.00,,,0.00,58.000000,,2014-01-11 19:42:00,
2014-01-11 14:52:00,39.0,35.0,-100.00,SW,221,5.0,24.0,87,0.00,,,0.00,58.000000,,2014-01-11 19:52:00,
2014-01-11 15:22:00,38.0,35.0,-100.00,WNW,299,6.0,23.0,90,0.00,,,0.00,57.000000,,2014-01-11 20:22:00,
2014-01-11 15:32:00,38.0,35.0,-100.00,WNW,299,6.0,23.0,90,0.00,,,0.00,57.000000,,2014-01-11 20:32:00,
2014-01-11 15:42:00,38.0,35.0,-100.00,WNW,299,6.0,23.0,90,0.00,,,0.00,57.000000,,2014-01-11 20:42:00,
2014-01-11 15:52:00,38.0,35.0,-100.00,WNW,299,6.0,23.0,90,0.00,,,0.00,57.000000,,2014-01-11 20:52:00,
2014-01-11 16:22:00,39.0,34.0,-100.00,SSW,203,6.0,19.0,83,0.00,,,0.00,72.000000,,2014-01-11 21:22:00,
2014-01-11 16:33:00,39.0,34.0,-100.00,SSW,203,6.0,19.0,83,0.00,,,0.00,72.000000,,2014-01-11 21:33:00,
2014-01-11 16:44:00,39.0,34.0,-100.00,SSW,203,6.0,19.0,83,0.00,,,0.00,72.000000,,2014-01-11 21:44:00,
2014-01-11 16:53:00,39.0,34.0,-100.00,SSW,203,6.0,19.0,83,0.00,,,0.00,72.000000,,2014-01-11 21:53:00,
2014-01-11 17:23:00,29.0,28.0,-100.00,North,10,8.0,27.0,97,0.00,,,0.00,19.000000,,2014-01-11 22:23:00,
2014-01-11 17:33:00,29.0,28.0,-100.00,North,10,8.0,27.0,97,0.00,,,0.00,19.000000,,2014-01-11 22:33:00,
2014-01-11 17:43:00,29.0,28.0,-100.00,North,10,8.0,27.0,97,0.00,,,0.00,19.000000,,2014-01-11 22:43:00,
2014-01-11 17:52:00,29.0,28.0,-100.00,North,10,8.0,27.0,97,0.00,,,0.00,19.000000,,2014-01-11 22:52:00,
2014-01-11 18:22:00,29.0,26.0,-100.00,SW,230,6.0,27.0,90,0.00,,,0.00,17.000000,,2014-01-11 23:22:00,
2014-01-11 18:32:00,29.0,26.0,-100.00,SW,230,6.0,27.0,90,0.00,,,0.00,17.000000,,2014-01-11 23:32:00,
2014-01-11 18:43:00,29.0,26.0,-100.00,SW,230,6.0,27.0,90,0.00,,,0.00,17.000000,,2014-01-11 23:43:00,
2014-01-11 18:53:00,29.0,26.0,-100.00,SW,230,6.0,27.0,90,0.00,,,0.00,17.000000,,2014-01-11 23:53:00,
2014-01-11 19:22:00,30.0,25.0,-100.00,WNW,291,3.0,22.0,81,0.00,,,0.00,20.000000,,2014-01-12 00:22:00,
2014-01-11 19:32:00,30.0,25.0,-100.00,WNW,291,3.0,22.0,81,0.00,,,0.00,20.000000,,2014-01-12 00:32:00,
2014-01-11 19:42:00,30.0,25.0,-100.00,WNW,291,3.0,22.0,81,0.00,,,0.00,20.000000,,2014-01-12 00:42:00,
2014-01-11 19:52:00,30.0,25.0,-100.00,WNW,291,3.0,22.0,81,0.00,,,0.00,20.000000,,2014-01-12 00:52:00,
2014-01-11 20:22:00,31.0,22.0,-100.00,NW,319,5.0,14.0,70,0.00,,,0.00,5.000000,,2014-01-12 01:22:00,
2014-01-11 20:32:00,31.0,22.0,-100.00,NW,319,5.0,14.0,70,0.00,,,0.00,5.000000,,2014-01-12 01:32:00,
2014-01-11 20:42:00,31.0,22.0,-100.00,NW,319,5.0,14.0,70,0.00,,,0.00,5.000000,,2014-01-12 01:42:00,
2014-01-11 20:52:00,31.0,22.0,-100.00,NW,319,5.0,14.0,70,0.00,,,0.00,5.000000,,2014-01-12 01:52:00,
2014-01-11 21:22:00,32.0,20.0,-100.00,SW,234,7.0,21.0,62,0.00,,,0.00,0.000000,,2014-01-12 02:22:00,
2014-01-11 21:32:00,32.0,20.0,-100.00,SW,234,7.0,21.0,62,0.00,,,0.00,0.000000,,2014-01-12 02:32:00,
2014-01-11 21:42:00,32.0,20.0,-100.00,SW,234,7.0,21.0,62,0.00,,,0.00,0.000000,,2014-01-12 02:42:00,
2014-01-11 21:52:00,32.0,20.0,-100.00,SW,234,7.0,21.0,62,0.00,,,0.00,0.000000,,2014-01-12 02:52:00,
2014-01-11 22:22:00,32.0,21.0,-100.00,WSW,245,6.0,21.0,63,0.00,,,0.00,0.000000,,2014-01-12 03:22:00,
2014-01-11 22:33:00,32.0,21.0,-100.00,WSW,245,6.0,21.0,63,0.00,,,0.00,0.000000,,2014-01-12 03:33:00,
2014-01-11 22:43:00,32.0,21.0,-100.00,WSW,245,6.0,21.0,63,0.00,,,0.00,0.000000,,2014-01-12 03:43:00,
2014-01-11 22:53:00,32.0,21.0,-100.00,WSW,245,6.0,21.0,63,0.00,,,0.00,0.000000,,2014-01-12 03:53:00,
2014-01-11 23:23:00,31.0,23.0,-100.00,NNW,342,5.0,19.0,72,0.00,,,0.00,0.000000,,2014-01-12 04:23:00,
2014-01-11 23:33:00,31.0,23.0,-100.00,NNW,342,5.0,19.0,72,0.00,,,0.00,0.000000,,2014-01-12 04:33:00,
2014-01-11 23:43:00,31.0,23.0,-100.00,NNW,342,5.0,19.0,72,0.00,,,0.00,0.000000,,2014-01-12 04:43:00,
2014-01-11 23:52:00,31.0,23.0,-100.00,NNW,342,5.0,19.0,72,0.00,,,0.00,0.000000,,2014-01-12 04:52:00,